Portsmouth, NH

1:25 PM EDT on May 06, 2015 (GMT -0400)
Pease International Tradeport | | Change Station
CLOSE
Current Station
Airport
Location: Portsmouth,
Elevation: 102 ft
Nearby Weather Stations

Elev 102 ft 43.08 °N, 70.82 °W | Updated 1 hour ago

Partly Cloudy
Partly Cloudy
69 °F
Feels Like 69 °F
N
9
Wind Variable Wind from ESE

Today
High -- | Low -- °F
--% Chance of Precip.
Yesterday
High -- | Low -- °F
Precip. -- in
5:30 AM 7:49 PM
Waning Gibbous, 93% visible
Pressure 30.26 in
Visibility 10.0 miles
Clouds Few 25000 ft
Dew Point 34 °F
Humidity 27%
Rainfall 0.00 in
Snow Depth Not available.
UV 9 out of 12
Pollen 11.00 out of 12
Air Quality Not available.
Flu Activity Regional
METAR KPSM 061558Z 11008KT 10SM FEW250 21/01 A3025 RMK AO2A SLP247 T02080012

More Conditions Fewer Conditions

Pressure 30.26 in
Visibility 10.0 miles
Clouds Few 25000 ft
Dew Point 34 °F
Humidity 27%
Rainfall 0.00 in
Snow Depth Not available.
UV 9 out of 12
Pollen 11.00 out of 12
Air Quality Not available.
Flu Activity Regional
METAR KPSM 061558Z 11008KT 10SM FEW250 21/01 A3025 RMK AO2A SLP247 T02080012

More Conditions Fewer Conditions

10-Day Weather Forecast

Almanac

Astronomy

May. 06, 2015 Rise Set
Actual Time
Civil Twilight
Nautical Twilight
Astronomical Twilight
Moon
Length of Visible Light
Length of Day
Tomorrow will be .
, % of the Moon is Illuminated

Today's Extremes

State Highs State Lows

Community

WunderPhotos

Upload Photos

1,818,956 photos uploaded!

WunderBlogs® & News

Nearby

Air Quality

  Air Quality AQ Index Pollutant
Not available.

Snow Depth

Station Depth Elevation

Earthquake Activity

City Distance Mag. Time & Date
Minimum magnitude displayed is 2.5.

Coastal Water Temperatures

Place Temperature

Stations

Nearby Weather Stations

Station Location Temp. Windchill Dew Point Humidity Wind Precip. Elev Updated Type